createdAt,value
2022-10-17T00:00:32.652Z,32.60
2022-10-17T00:01:32.656Z,30.30
2022-10-17T00:02:32.973Z,29.40
2022-10-17T00:03:32.585Z,33.20
2022-10-17T00:05:32.633Z,33.50
2022-10-17T00:06:32.585Z,29.40
2022-10-17T00:07:32.543Z,31.60
2022-10-17T00:08:32.553Z,27.80
2022-10-17T00:09:32.833Z,27.60
2022-10-17T00:10:33.214Z,30.70
2022-10-17T00:11:32.497Z,28.80
2022-10-17T00:12:32.546Z,31.20
2022-10-17T00:14:32.486Z,30.60
2022-10-17T00:15:32.423Z,30.40
2022-10-17T00:16:32.415Z,31.60
2022-10-17T00:17:32.444Z,32.70
2022-10-17T00:18:32.528Z,30.30
2022-10-17T00:19:32.395Z,31.00
2022-10-17T00:20:32.667Z,27.90
2022-10-17T00:21:32.351Z,30.20
2022-10-17T00:22:32.371Z,29.30
2022-10-17T00:23:32.695Z,29.40
2022-10-17T00:24:32.361Z,33.10
2022-10-17T00:25:32.277Z,36.10
2022-10-17T00:26:32.296Z,33.80
2022-10-17T00:27:32.266Z,32.10
2022-10-17T00:28:32.266Z,32.50
2022-10-17T00:29:32.344Z,29.30
2022-10-17T00:30:32.576Z,28.80
2022-10-17T00:31:32.233Z,28.90
2022-10-17T00:32:36.475Z,31.10
2022-10-17T00:33:32.225Z,28.80
2022-10-17T00:34:32.225Z,27.50
2022-10-17T00:35:32.474Z,29.70
2022-10-17T00:36:32.204Z,28.70
2022-10-17T00:37:32.121Z,33.60
2022-10-17T00:38:32.162Z,29.40
2022-10-17T00:39:32.277Z,29.00
2022-10-17T00:40:32.415Z,27.50
2022-10-17T00:41:32.081Z,28.90
2022-10-17T00:42:32.068Z,31.50
2022-10-17T00:43:32.076Z,29.00
2022-10-17T00:44:32.157Z,25.10
2022-10-17T00:45:32.074Z,29.60
2022-10-17T00:46:32.017Z,33.30
2022-10-17T00:47:32.045Z,28.60
2022-10-17T00:48:32.116Z,31.60
2022-10-17T00:49:32.871Z,32.30
2022-10-17T00:50:32.060Z,27.40
2022-10-17T00:51:31.971Z,31.30
2022-10-17T00:52:33.647Z,29.40
2022-10-17T00:53:32.196Z,28.40
2022-10-17T00:54:32.286Z,27.10
2022-10-17T00:55:31.906Z,28.60
2022-10-17T00:56:31.963Z,27.20
2022-10-17T00:57:32.138Z,27.60
2022-10-17T00:58:31.856Z,29.40
2022-10-17T00:59:32.752Z,31.70
2022-10-17T01:00:31.966Z,31.00
2022-10-17T01:01:31.990Z,30.20
2022-10-17T01:02:36.146Z,30.00
2022-10-17T01:03:31.886Z,29.40
2022-10-17T01:04:31.786Z,30.50
2022-10-17T01:05:31.765Z,26.40
2022-10-17T01:06:31.853Z,28.80
2022-10-17T01:07:34.694Z,29.50
2022-10-17T01:08:32.770Z,30.20
2022-10-17T01:09:31.758Z,26.60
2022-10-17T01:10:31.720Z,30.20
2022-10-17T01:11:31.817Z,28.80
2022-10-17T01:12:35.962Z,29.50
2022-10-17T01:13:31.659Z,27.20
2022-10-17T01:14:31.655Z,26.60
2022-10-17T01:15:32.478Z,28.80
2022-10-17T01:16:31.667Z,30.50
2022-10-17T01:17:31.918Z,25.40
2022-10-17T01:18:31.587Z,31.10
2022-10-17T01:19:36.568Z,30.10
2022-10-17T01:20:31.903Z,25.60
2022-10-17T01:21:31.632Z,23.40
2022-10-17T01:22:35.510Z,23.40
2022-10-17T01:23:31.634Z,28.00
2022-10-17T01:24:31.539Z,26.70
2022-10-17T01:25:31.548Z,25.70
2022-10-17T01:26:31.658Z,24.10
2022-10-17T01:27:31.506Z,28.70
2022-10-17T01:28:31.591Z,23.30
2022-10-17T01:29:31.764Z,25.20
2022-10-17T01:30:31.411Z,26.60
2022-10-17T01:31:31.486Z,25.10
2022-10-17T01:32:31.427Z,22.90
2022-10-17T01:33:35.468Z,24.90
2022-10-17T01:34:31.427Z,23.60
2022-10-17T01:35:31.370Z,25.60
2022-10-17T01:36:31.338Z,25.00
2022-10-17T01:37:31.375Z,25.40
2022-10-17T01:38:31.428Z,26.30
2022-10-17T01:39:33.392Z,24.10
2022-10-17T01:40:35.325Z,24.60
2022-10-17T01:41:31.290Z,24.40
2022-10-17T01:42:31.552Z,25.30
2022-10-17T01:43:31.304Z,23.70
2022-10-17T01:44:31.268Z,22.20
2022-10-17T01:45:31.223Z,24.40
2022-10-17T01:46:31.240Z,27.50
2022-10-17T01:47:31.377Z,24.50
2022-10-17T01:48:31.618Z,23.40
2022-10-17T01:49:31.176Z,24.90
2022-10-17T01:50:31.190Z,25.10
2022-10-17T01:51:33.489Z,22.10
2022-10-17T01:52:31.166Z,22.90
2022-10-17T01:53:31.167Z,23.30
2022-10-17T01:54:31.110Z,23.70
2022-10-17T01:55:31.159Z,23.30
2022-10-17T01:56:31.159Z,24.40
2022-10-17T01:57:31.343Z,23.00
2022-10-17T01:58:31.070Z,24.50
2022-10-17T01:59:31.023Z,22.40
2022-10-17T02:00:31.021Z,22.30
2022-10-17T02:01:31.108Z,24.60
2022-10-17T02:02:31.078Z,23.30
2022-10-17T02:03:31.011Z,24.10
2022-10-17T02:04:30.992Z,22.40
2022-10-17T02:05:31.198Z,23.60
2022-10-17T02:06:30.960Z,20.30
2022-10-17T02:07:31.224Z,23.90
2022-10-17T02:08:30.966Z,21.90
2022-10-17T02:09:30.956Z,22.00
2022-10-17T02:10:30.907Z,26.00
2022-10-17T02:11:30.887Z,22.70
2022-10-17T02:12:30.900Z,24.60
2022-10-17T02:13:30.870Z,23.80
2022-10-17T02:14:30.902Z,21.30
2022-10-17T02:15:30.888Z,23.70
2022-10-17T02:16:30.832Z,22.40
2022-10-17T02:17:31.118Z,20.80
2022-10-17T02:18:30.790Z,23.40
2022-10-17T02:19:30.811Z,26.90
2022-10-17T02:20:30.850Z,23.40
2022-10-17T02:21:30.783Z,23.50
2022-10-17T02:22:30.991Z,21.50
2022-10-17T02:23:30.770Z,21.70
2022-10-17T02:24:30.743Z,20.90
2022-10-17T02:25:30.739Z,20.80
2022-10-17T02:26:31.149Z,21.20
2022-10-17T02:27:31.034Z,24.70
2022-10-17T02:28:31.522Z,22.30
2022-10-17T02:29:30.943Z,20.50
2022-10-17T02:30:30.688Z,21.30
2022-10-17T02:31:30.881Z,21.80
2022-10-17T02:32:30.673Z,23.00
2022-10-17T02:33:30.671Z,22.10
2022-10-17T02:34:30.578Z,21.50
2022-10-17T02:35:30.573Z,22.70
2022-10-17T02:36:30.594Z,21.70
2022-10-17T02:37:31.110Z,22.20
2022-10-17T02:38:30.592Z,24.80
2022-10-17T02:39:30.542Z,25.70
2022-10-17T02:40:30.524Z,21.40
2022-10-17T02:41:30.565Z,22.70
2022-10-17T02:42:31.075Z,26.30
2022-10-17T02:43:30.476Z,22.70
2022-10-17T02:44:30.542Z,21.20
2022-10-17T02:45:34.711Z,25.50
2022-10-17T02:46:30.463Z,18.70
2022-10-17T02:47:30.433Z,20.00
2022-10-17T02:48:30.442Z,22.40
2022-10-17T02:49:30.381Z,24.20
2022-10-17T02:50:30.429Z,23.30
2022-10-17T02:51:30.573Z,23.60
2022-10-17T02:52:30.760Z,19.80
2022-10-17T02:53:30.383Z,24.70
2022-10-17T02:54:30.312Z,25.20
2022-10-17T02:55:30.312Z,20.60
2022-10-17T02:56:30.305Z,19.20
2022-10-17T02:57:30.319Z,20.60
2022-10-17T02:58:30.266Z,22.20
2022-10-17T02:59:30.349Z,21.80
2022-10-17T03:00:30.242Z,23.50
2022-10-17T03:01:30.301Z,19.50
2022-10-17T03:02:30.479Z,21.40
2022-10-17T03:03:30.236Z,23.40
2022-10-17T03:04:34.421Z,21.80
2022-10-17T03:05:30.223Z,20.20
2022-10-17T03:06:30.232Z,20.10
2022-10-17T03:07:30.144Z,19.30
2022-10-17T03:08:30.197Z,18.10
2022-10-17T03:09:30.139Z,19.20
2022-10-17T03:10:30.173Z,20.30
2022-10-17T03:11:30.140Z,19.40
2022-10-17T03:12:30.569Z,19.40
2022-10-17T03:13:30.134Z,23.00
2022-10-17T03:14:30.382Z,20.80
2022-10-17T03:15:30.070Z,18.90
2022-10-17T03:16:30.072Z,19.00
2022-10-17T03:17:30.053Z,23.90
2022-10-17T03:18:30.027Z,19.50
2022-10-17T03:19:29.990Z,19.90
2022-10-17T03:20:30.009Z,20.10
2022-10-17T03:21:30.154Z,18.10
2022-10-17T03:22:30.240Z,22.00
2022-10-17T03:23:29.965Z,20.80
2022-10-17T03:24:29.984Z,20.70
2022-10-17T03:25:30.166Z,19.50
2022-10-17T03:26:29.954Z,17.90
2022-10-17T03:27:30.135Z,18.50
2022-10-17T03:28:29.962Z,18.70
2022-10-17T03:29:29.896Z,18.80
2022-10-17T03:30:29.847Z,17.30
2022-10-17T03:31:29.872Z,19.50
2022-10-17T03:32:29.872Z,22.50
2022-10-17T03:33:29.825Z,17.50
2022-10-17T03:34:29.814Z,16.50
2022-10-17T03:35:29.823Z,18.80
2022-10-17T03:36:29.765Z,21.90
2022-10-17T03:37:30.084Z,18.90
2022-10-17T03:38:29.783Z,22.40
2022-10-17T03:39:29.750Z,16.20
2022-10-17T03:40:29.746Z,16.50
2022-10-17T03:41:29.724Z,15.70
2022-10-17T03:42:29.714Z,15.80
2022-10-17T03:43:29.736Z,16.70
2022-10-17T03:44:29.713Z,17.70
2022-10-17T03:45:29.691Z,17.60
2022-10-17T03:46:29.647Z,19.70
2022-10-17T03:47:29.875Z,18.30
2022-10-17T03:48:29.644Z,18.80
2022-10-17T03:49:29.604Z,16.90
2022-10-17T03:50:29.997Z,19.90
2022-10-17T03:51:29.612Z,15.50
2022-10-17T03:52:29.594Z,21.20
2022-10-17T03:53:29.574Z,17.40
2022-10-17T03:54:29.545Z,17.60
2022-10-17T03:55:29.574Z,20.00
2022-10-17T03:56:29.534Z,16.80
2022-10-17T03:57:29.696Z,20.00
2022-10-17T03:58:29.576Z,14.60
2022-10-17T03:59:29.484Z,18.60
2022-10-17T04:00:29.464Z,16.10
2022-10-17T04:01:29.482Z,21.70
2022-10-17T04:02:29.725Z,18.60
2022-10-17T04:03:29.445Z,14.30
2022-10-17T04:04:29.426Z,15.50
2022-10-17T04:05:29.395Z,17.80
2022-10-17T04:06:29.401Z,17.30
2022-10-17T04:07:29.426Z,16.90
2022-10-17T04:08:29.408Z,15.90
2022-10-17T04:09:29.385Z,18.00
2022-10-17T04:10:29.392Z,16.30
2022-10-17T04:11:29.339Z,16.00
2022-10-17T04:12:33.523Z,20.60
2022-10-17T04:13:29.285Z,18.50
2022-10-17T04:14:29.516Z,24.50
2022-10-17T04:15:29.304Z,21.70
2022-10-17T04:16:29.356Z,16.50
2022-10-17T04:17:29.245Z,17.20
2022-10-17T04:18:29.211Z,17.50
2022-10-17T04:19:29.256Z,17.20
2022-10-17T04:20:29.180Z,18.10
2022-10-17T04:21:29.156Z,15.20
2022-10-17T04:22:29.560Z,16.90
2022-10-17T04:23:29.197Z,18.10
2022-10-17T04:24:29.106Z,16.40
2022-10-17T04:25:32.216Z,17.70
2022-10-17T04:26:30.095Z,16.30
2022-10-17T04:27:29.057Z,15.50
2022-10-17T04:28:29.188Z,15.10
2022-10-17T04:29:29.035Z,16.00
2022-10-17T04:30:29.004Z,13.60
2022-10-17T04:31:29.005Z,18.60
2022-10-17T04:32:29.288Z,14.70
2022-10-17T04:33:28.981Z,16.00
2022-10-17T04:34:28.983Z,17.60
2022-10-17T04:35:28.956Z,18.90
2022-10-17T04:36:29.605Z,18.90
2022-10-17T04:37:29.734Z,16.80
2022-10-17T04:38:28.938Z,18.30
2022-10-17T04:39:28.906Z,19.00
2022-10-17T04:40:28.889Z,15.90
2022-10-17T04:41:28.896Z,17.10
2022-10-17T04:42:29.150Z,15.70
2022-10-17T04:43:28.864Z,18.80
2022-10-17T04:44:28.915Z,19.60
2022-10-17T04:45:28.818Z,23.50
2022-10-17T04:46:28.808Z,20.70
2022-10-17T04:47:28.798Z,15.10
2022-10-17T04:48:28.779Z,14.80
2022-10-17T04:49:28.865Z,18.50
2022-10-17T04:50:28.778Z,17.90
2022-10-17T04:51:28.754Z,15.10
2022-10-17T04:52:28.920Z,15.80
2022-10-17T04:53:28.719Z,18.60
2022-10-17T04:54:28.718Z,19.30
2022-10-17T04:55:28.745Z,17.00
2022-10-17T04:56:28.738Z,16.10
2022-10-17T04:57:28.689Z,15.50
2022-10-17T04:58:28.658Z,15.20
2022-10-17T04:59:28.675Z,18.10
2022-10-17T05:00:28.689Z,14.90
2022-10-17T05:01:28.707Z,14.30
2022-10-17T05:02:28.824Z,16.30
2022-10-17T05:03:28.589Z,14.00
2022-10-17T05:04:28.589Z,16.20
2022-10-17T05:05:29.276Z,13.20
2022-10-17T05:06:28.608Z,19.30
2022-10-17T05:07:28.567Z,16.60
2022-10-17T05:08:28.549Z,14.70
2022-10-17T05:09:28.501Z,27.20
2022-10-17T05:10:28.551Z,22.80
2022-10-17T05:11:28.580Z,19.60
2022-10-17T05:12:28.777Z,30.80
2022-10-17T05:13:28.529Z,45.80
2022-10-17T05:14:28.507Z,20.50
2022-10-17T05:15:28.475Z,18.60
2022-10-17T05:16:28.581Z,20.10
2022-10-17T05:17:28.447Z,17.70
2022-10-17T05:18:28.391Z,21.10
2022-10-17T05:19:28.398Z,15.00
2022-10-17T05:20:28.370Z,16.80
2022-10-17T05:21:28.673Z,14.70
2022-10-17T05:22:28.585Z,12.70
2022-10-17T05:23:28.449Z,13.70
2022-10-17T05:24:28.303Z,15.60
2022-10-17T05:25:28.346Z,19.20
2022-10-17T05:26:28.340Z,16.70
2022-10-17T05:27:28.382Z,17.40
2022-10-17T05:28:32.388Z,19.90
2022-10-17T05:29:28.279Z,18.30
2022-10-17T05:30:28.468Z,16.80
2022-10-17T05:31:28.218Z,18.10
2022-10-17T05:32:28.493Z,14.70
2022-10-17T05:33:28.234Z,15.70
2022-10-17T05:34:28.223Z,13.70
2022-10-17T05:35:28.158Z,13.40
2022-10-17T05:36:28.139Z,14.30
2022-10-17T05:37:28.152Z,14.60
2022-10-17T05:38:32.179Z,16.60
2022-10-17T05:39:28.132Z,13.40
2022-10-17T05:40:28.842Z,15.00
2022-10-17T05:41:28.069Z,15.80
2022-10-17T05:42:29.124Z,15.20
2022-10-17T05:43:28.076Z,14.90
2022-10-17T05:44:29.880Z,15.00
2022-10-17T05:45:28.015Z,13.00
2022-10-17T05:46:28.379Z,15.70
2022-10-17T05:47:28.409Z,13.10
2022-10-17T05:48:28.051Z,17.10
2022-10-17T05:49:46.049Z,12.60
2022-10-17T05:50:29.051Z,11.40
2022-10-17T05:51:28.012Z,15.90
2022-10-17T05:52:28.394Z,11.80
2022-10-17T05:53:28.652Z,13.90
2022-10-17T05:54:27.960Z,12.00
2022-10-17T05:55:27.940Z,14.50
2022-10-17T05:56:28.003Z,14.30
2022-10-17T05:57:27.910Z,11.90
2022-10-17T05:59:28.880Z,12.40
2022-10-17T06:00:27.830Z,13.40
2022-10-17T06:01:28.579Z,13.90
2022-10-17T06:02:28.514Z,13.40
2022-10-17T06:03:28.659Z,15.60
2022-10-17T06:04:28.248Z,12.50
2022-10-17T06:05:28.239Z,13.70
2022-10-17T06:06:28.306Z,11.40
2022-10-17T06:07:27.750Z,10.80
2022-10-17T06:08:27.801Z,12.20
2022-10-17T06:09:27.700Z,10.90
2022-10-17T06:10:27.833Z,14.20
2022-10-17T06:11:27.663Z,9.50
2022-10-17T06:12:27.975Z,11.50
2022-10-17T06:13:27.659Z,11.80
2022-10-17T06:14:27.740Z,15.60
2022-10-17T06:15:27.665Z,12.00
2022-10-17T06:16:29.262Z,14.20
2022-10-17T06:17:27.623Z,16.30
2022-10-17T06:18:27.601Z,11.90
2022-10-17T06:19:27.592Z,13.70
2022-10-17T06:20:27.681Z,14.70
2022-10-17T06:21:27.565Z,9.90
2022-10-17T06:22:27.881Z,14.90
2022-10-17T06:23:27.511Z,13.60
2022-10-17T06:24:27.509Z,12.40
2022-10-17T06:25:27.477Z,13.20
2022-10-17T06:26:27.492Z,12.60
2022-10-17T06:27:27.484Z,11.10
2022-10-17T06:28:27.484Z,16.40
2022-10-17T06:29:27.432Z,14.10
2022-10-17T06:30:27.455Z,12.50
2022-10-17T06:31:27.411Z,10.90
2022-10-17T06:32:27.742Z,12.90
2022-10-17T06:33:27.370Z,16.30
2022-10-17T06:34:27.419Z,12.70
2022-10-17T06:35:27.393Z,13.30
2022-10-17T06:36:27.449Z,12.20
2022-10-17T06:37:28.386Z,13.30
2022-10-17T06:38:27.351Z,15.40
2022-10-17T06:39:27.343Z,12.50
2022-10-17T06:40:27.402Z,11.90
2022-10-17T06:41:27.292Z,13.80
2022-10-17T06:42:27.292Z,11.10
2022-10-17T06:43:27.909Z,14.90
2022-10-17T06:44:27.271Z,14.20
2022-10-17T06:45:27.231Z,16.00
2022-10-17T06:46:27.213Z,12.60
2022-10-17T06:47:27.548Z,17.40
2022-10-17T06:48:27.194Z,11.90
2022-10-17T06:49:27.182Z,13.20
2022-10-17T06:50:27.219Z,14.70
2022-10-17T06:51:27.152Z,13.80
2022-10-17T06:52:27.271Z,13.10
2022-10-17T06:53:27.144Z,14.60
2022-10-17T06:54:27.120Z,14.40
2022-10-17T06:55:27.079Z,12.40
2022-10-17T06:56:27.083Z,13.90
2022-10-17T06:57:27.438Z,13.00
2022-10-17T06:58:27.065Z,13.40
2022-10-17T06:59:27.079Z,12.60
2022-10-17T07:00:27.023Z,14.50
2022-10-17T07:01:27.022Z,12.50
2022-10-17T07:02:27.419Z,12.80
2022-10-17T07:03:26.962Z,11.00
2022-10-17T07:04:27.010Z,13.60
2022-10-17T07:05:26.944Z,12.30
2022-10-17T07:06:26.966Z,13.40
2022-10-17T07:07:27.199Z,13.00
2022-10-17T07:08:26.944Z,13.30
2022-10-17T07:09:26.931Z,13.80
2022-10-17T07:10:27.198Z,13.40
2022-10-17T07:11:26.883Z,14.10
2022-10-17T07:12:26.874Z,15.90
2022-10-17T07:13:26.893Z,13.70
2022-10-17T07:14:26.834Z,10.60
2022-10-17T07:15:26.895Z,15.00
2022-10-17T07:16:26.834Z,12.50
2022-10-17T07:17:27.054Z,12.60
2022-10-17T07:18:26.774Z,12.80
2022-10-17T07:19:26.761Z,14.10
2022-10-17T07:20:26.806Z,13.00
2022-10-17T07:21:26.736Z,16.30
2022-10-17T07:22:26.746Z,11.70
2022-10-17T07:23:26.743Z,12.00
2022-10-17T07:24:26.730Z,10.20
2022-10-17T07:25:26.707Z,17.10
2022-10-17T07:26:26.708Z,12.80
2022-10-17T07:27:26.890Z,12.20
2022-10-17T07:28:26.718Z,15.40
2022-10-17T07:29:26.654Z,12.80
2022-10-17T07:30:26.626Z,14.30
2022-10-17T07:31:26.644Z,12.60
2022-10-17T07:32:26.637Z,13.00
2022-10-17T07:33:26.604Z,16.00
2022-10-17T07:34:26.565Z,14.60
2022-10-17T07:35:26.586Z,16.50
2022-10-17T07:36:26.554Z,13.80
2022-10-17T07:37:27.227Z,15.60
2022-10-17T07:38:26.645Z,12.00
2022-10-17T07:39:26.789Z,13.70
2022-10-17T07:40:30.456Z,11.20
2022-10-17T07:41:26.496Z,11.10
2022-10-17T07:42:26.534Z,13.70
2022-10-17T07:43:26.445Z,13.00
2022-10-17T07:44:27.015Z,12.90
2022-10-17T07:45:26.513Z,12.40
2022-10-17T07:46:26.545Z,15.00
2022-10-17T07:47:26.716Z,18.70
2022-10-17T07:48:26.388Z,14.60
2022-10-17T07:49:26.384Z,13.10
2022-10-17T07:50:26.382Z,17.00
2022-10-17T07:51:26.376Z,13.20
2022-10-17T07:52:26.941Z,14.50
2022-10-17T07:53:26.654Z,14.40
2022-10-17T07:54:26.766Z,15.60
2022-10-17T07:55:26.486Z,14.10
2022-10-17T07:56:26.563Z,13.00
2022-10-17T07:57:26.636Z,13.10
2022-10-17T07:58:26.387Z,14.10
2022-10-17T07:59:26.351Z,13.60
2022-10-17T08:00:26.269Z,17.10
2022-10-17T08:01:26.265Z,15.60
2022-10-17T08:02:26.358Z,12.20
2022-10-17T08:03:26.220Z,15.80
2022-10-17T08:04:26.187Z,12.90
2022-10-17T08:05:26.194Z,11.70
2022-10-17T08:06:26.264Z,12.30
2022-10-17T08:07:29.249Z,11.30
2022-10-17T08:08:26.209Z,13.00
2022-10-17T08:09:26.098Z,11.50
2022-10-17T08:10:26.182Z,13.20
2022-10-17T08:11:26.167Z,12.30
2022-10-17T08:12:26.422Z,11.20
2022-10-17T08:13:26.087Z,14.60
2022-10-17T08:14:26.088Z,13.70
2022-10-17T08:15:29.384Z,15.00
2022-10-17T08:16:27.050Z,14.30
2022-10-17T08:17:26.017Z,10.50
2022-10-17T08:18:26.008Z,14.80
2022-10-17T08:19:26.001Z,12.20
2022-10-17T08:20:26.018Z,13.90
2022-10-17T08:21:25.959Z,10.30
2022-10-17T08:22:25.942Z,14.40
2022-10-17T08:23:25.908Z,11.20
2022-10-17T08:24:26.037Z,11.70
2022-10-17T08:25:25.956Z,13.80
2022-10-17T08:26:25.925Z,12.60
2022-10-17T08:27:25.900Z,13.80
2022-10-17T08:28:25.936Z,12.70
2022-10-17T08:29:25.879Z,11.20
2022-10-17T08:30:25.847Z,17.20
2022-10-17T08:31:25.836Z,11.40
2022-10-17T08:32:25.879Z,11.80
2022-10-17T08:33:25.933Z,11.30
2022-10-17T08:34:25.825Z,14.60
2022-10-17T08:35:25.830Z,13.50
2022-10-17T08:36:25.769Z,14.70
2022-10-17T08:37:25.791Z,13.80
2022-10-17T08:38:27.540Z,14.10
2022-10-17T08:39:25.718Z,13.50
2022-10-17T08:40:25.690Z,12.20
2022-10-17T08:41:25.727Z,11.40
2022-10-17T08:42:25.679Z,15.10
2022-10-17T08:43:25.666Z,14.60
2022-10-17T08:44:25.651Z,14.80
2022-10-17T08:45:25.676Z,12.00
2022-10-17T08:46:25.697Z,10.10
2022-10-17T08:47:25.628Z,13.00
2022-10-17T08:48:25.608Z,13.60
2022-10-17T08:49:25.630Z,13.40
2022-10-17T08:50:25.584Z,13.40
2022-10-17T08:51:25.568Z,14.30
2022-10-17T08:52:25.577Z,13.30
2022-10-17T08:53:25.532Z,15.50
2022-10-17T08:54:25.530Z,16.30
2022-10-17T08:55:25.522Z,12.10
2022-10-17T08:56:44.134Z,15.90
2022-10-17T08:57:26.601Z,14.40
2022-10-17T08:58:25.450Z,12.80
2022-10-17T08:59:25.461Z,14.30
2022-10-17T09:00:25.441Z,13.70
2022-10-17T09:01:25.407Z,11.70
2022-10-17T09:02:25.429Z,14.60
2022-10-17T09:03:25.498Z,14.70
2022-10-17T09:04:25.461Z,11.60
2022-10-17T09:05:26.590Z,14.90
2022-10-17T09:06:25.341Z,13.20
2022-10-17T09:07:25.330Z,10.50
2022-10-17T09:08:25.340Z,11.50
2022-10-17T09:09:25.325Z,13.00
2022-10-17T09:10:25.301Z,13.70
2022-10-17T09:11:25.281Z,9.70
2022-10-17T09:12:25.251Z,12.50
2022-10-17T09:13:25.331Z,9.60
2022-10-17T09:14:25.301Z,16.50
2022-10-17T09:15:25.260Z,13.00
2022-10-17T09:16:25.233Z,13.00
2022-10-17T09:17:25.276Z,12.60
2022-10-17T09:18:25.225Z,11.60
2022-10-17T09:19:25.202Z,13.00
2022-10-17T09:20:25.233Z,14.80
2022-10-17T09:21:25.201Z,16.10
2022-10-17T09:22:25.132Z,13.30
2022-10-17T09:23:25.134Z,13.20
2022-10-17T09:24:25.135Z,12.30
2022-10-17T09:25:25.104Z,13.20
2022-10-17T09:26:25.101Z,15.10
2022-10-17T09:27:25.150Z,12.80
2022-10-17T09:28:25.097Z,9.00
2022-10-17T09:29:25.066Z,9.70
2022-10-17T09:30:44.296Z,12.50
2022-10-17T09:31:26.052Z,12.20
2022-10-17T09:32:25.017Z,16.30
2022-10-17T09:33:35.511Z,9.20
2022-10-17T09:34:27.465Z,7.60
2022-10-17T09:35:25.064Z,15.30
2022-10-17T09:36:24.994Z,11.80
2022-10-17T09:37:24.984Z,13.20
2022-10-17T09:38:25.012Z,11.50
2022-10-17T09:39:24.938Z,9.50
2022-10-17T09:40:24.886Z,11.00
2022-10-17T09:41:45.545Z,12.30
2022-10-17T09:42:25.947Z,17.90
2022-10-17T09:43:24.869Z,10.60
2022-10-17T09:44:24.872Z,8.80
2022-10-17T09:45:24.837Z,16.90
2022-10-17T09:46:24.823Z,11.20
2022-10-17T09:47:24.815Z,12.50
2022-10-17T09:48:24.795Z,13.70
2022-10-17T09:49:24.812Z,11.40
2022-10-17T09:50:24.755Z,16.00
2022-10-17T09:51:26.100Z,8.70
2022-10-17T09:52:24.724Z,10.60
2022-10-17T09:53:24.729Z,14.00
2022-10-17T09:54:24.745Z,19.10
2022-10-17T09:55:24.684Z,13.20
2022-10-17T09:56:24.688Z,9.40
2022-10-17T09:57:24.656Z,10.60
2022-10-17T09:58:24.639Z,16.00
2022-10-17T09:59:24.637Z,13.50
2022-10-17T10:00:24.757Z,13.10
2022-10-17T10:01:24.741Z,10.60
2022-10-17T10:02:24.607Z,18.50
2022-10-17T10:03:24.581Z,17.40
2022-10-17T10:04:25.844Z,14.70
2022-10-17T10:05:24.545Z,13.60
2022-10-17T10:06:24.607Z,12.80
2022-10-17T10:07:28.963Z,14.70
2022-10-17T10:08:24.521Z,17.50
2022-10-17T10:09:24.582Z,13.10
2022-10-17T10:10:24.468Z,15.20
2022-10-17T10:11:24.456Z,13.70
2022-10-17T10:12:24.483Z,13.10
2022-10-17T10:13:24.446Z,11.40
2022-10-17T10:14:24.425Z,12.70
2022-10-17T10:15:24.448Z,15.30
2022-10-17T10:16:24.408Z,12.80
2022-10-17T10:17:24.436Z,12.90
2022-10-17T10:18:24.479Z,12.40
2022-10-17T10:19:24.358Z,13.50
2022-10-17T10:20:24.372Z,12.20
2022-10-17T10:21:24.329Z,10.80
2022-10-17T10:22:24.339Z,14.10
2022-10-17T10:23:24.323Z,13.70
2022-10-17T10:24:29.636Z,14.70
2022-10-17T10:25:25.316Z,12.20
2022-10-17T10:26:24.300Z,17.30
2022-10-17T10:27:24.297Z,13.60
2022-10-17T10:28:24.320Z,14.20
2022-10-17T10:29:24.238Z,10.30
2022-10-17T10:30:24.250Z,9.40
2022-10-17T10:31:24.229Z,12.70
2022-10-17T10:32:24.200Z,11.60
2022-10-17T10:33:24.486Z,13.60
2022-10-17T10:34:24.160Z,13.30
2022-10-17T10:35:24.169Z,12.20
2022-10-17T10:36:24.247Z,10.80
2022-10-17T10:37:24.160Z,11.20
2022-10-17T10:38:24.131Z,8.50
2022-10-17T10:39:24.102Z,13.80
2022-10-17T10:40:24.092Z,12.20
2022-10-17T10:41:24.092Z,13.60
2022-10-17T10:42:24.132Z,12.90
2022-10-17T10:43:24.043Z,11.10
2022-10-17T10:44:24.032Z,11.10
2022-10-17T10:45:43.284Z,11.80
2022-10-17T10:46:25.015Z,10.10
2022-10-17T10:47:24.014Z,10.70
2022-10-17T10:48:24.003Z,12.80
2022-10-17T10:49:24.020Z,15.20
2022-10-17T10:50:23.962Z,14.30
2022-10-17T10:51:23.943Z,12.40
2022-10-17T10:52:23.923Z,14.70
2022-10-17T10:53:23.964Z,14.10
2022-10-17T10:54:23.956Z,13.60
2022-10-17T10:55:23.941Z,16.80
2022-10-17T10:56:23.894Z,12.90
2022-10-17T10:57:23.885Z,10.90
2022-10-17T10:58:23.895Z,8.90
2022-10-17T10:59:23.864Z,13.60
2022-10-17T11:00:23.877Z,12.90
2022-10-17T11:01:23.851Z,12.20
2022-10-17T11:02:23.793Z,12.60
2022-10-17T11:03:23.798Z,11.60
2022-10-17T11:04:23.784Z,14.10
2022-10-17T11:05:23.746Z,9.00
2022-10-17T11:06:23.775Z,14.00
2022-10-17T11:07:23.743Z,12.40
2022-10-17T11:08:23.735Z,10.70
2022-10-17T11:09:23.725Z,11.60
2022-10-17T11:10:23.751Z,12.00
2022-10-17T11:11:23.758Z,11.70
2022-10-17T11:12:23.713Z,10.30
2022-10-17T11:13:23.668Z,10.40
2022-10-17T11:14:23.646Z,13.30
2022-10-17T11:15:23.678Z,10.30
2022-10-17T11:16:23.630Z,11.80
2022-10-17T11:17:23.619Z,10.70
2022-10-17T11:18:23.608Z,14.20
2022-10-17T11:19:23.566Z,14.20
2022-10-17T11:20:23.578Z,10.50
2022-10-17T11:21:23.593Z,9.30
2022-10-17T11:22:26.590Z,10.70
2022-10-17T11:23:24.560Z,11.30
2022-10-17T11:24:23.519Z,12.10
2022-10-17T11:25:23.491Z,11.20
2022-10-17T11:26:23.500Z,11.70
2022-10-17T11:27:23.497Z,11.50
2022-10-17T11:28:23.526Z,11.00
2022-10-17T11:29:23.477Z,11.00
2022-10-17T11:30:23.421Z,12.20
2022-10-17T11:31:23.418Z,11.10
2022-10-17T11:32:23.431Z,10.00
2022-10-17T11:33:23.403Z,13.00
2022-10-17T11:34:23.410Z,13.50
2022-10-17T11:35:23.412Z,10.20
2022-10-17T11:36:23.364Z,12.20
2022-10-17T11:37:23.605Z,10.30
2022-10-17T11:38:23.332Z,10.80
2022-10-17T11:39:23.318Z,14.10
2022-10-17T11:40:24.485Z,8.90
2022-10-17T11:41:23.322Z,11.60
2022-10-17T11:42:23.292Z,12.00
2022-10-17T11:43:23.272Z,11.50
2022-10-17T11:44:23.232Z,13.30
2022-10-17T11:45:23.274Z,10.70
2022-10-17T11:46:23.303Z,8.70
2022-10-17T11:47:23.243Z,13.20
2022-10-17T11:48:23.195Z,12.40
2022-10-17T11:49:23.230Z,14.70
2022-10-17T11:52:44.080Z,11.50
2022-10-17T11:53:24.204Z,11.80
2022-10-17T11:54:23.128Z,12.30
2022-10-17T11:55:23.091Z,13.00
2022-10-17T11:56:23.094Z,10.80
2022-10-17T11:57:23.058Z,11.00
2022-10-17T11:58:23.112Z,10.90
2022-10-17T11:59:23.082Z,11.90
2022-10-17T12:00:23.048Z,9.90
2022-10-17T12:01:23.269Z,13.40
2022-10-17T12:02:23.025Z,13.40
2022-10-17T12:03:23.046Z,8.90
2022-10-17T12:04:23.347Z,10.80
2022-10-17T12:05:22.976Z,10.90
2022-10-17T12:06:28.510Z,10.90
2022-10-17T12:07:24.099Z,11.80
2022-10-17T12:08:22.944Z,11.20
2022-10-17T12:09:23.286Z,10.50
2022-10-17T12:10:22.967Z,9.20
2022-10-17T12:11:23.585Z,10.40
2022-10-17T12:12:22.895Z,14.70
2022-10-17T12:13:22.847Z,10.00
2022-10-17T12:14:22.863Z,12.90
2022-10-17T12:15:22.937Z,11.60
2022-10-17T12:16:22.908Z,9.60
2022-10-17T12:17:22.818Z,9.80
2022-10-17T12:18:23.048Z,12.10
2022-10-17T12:19:22.776Z,14.00
2022-10-17T12:20:22.768Z,10.60
2022-10-17T12:21:22.770Z,10.40
2022-10-17T12:22:22.781Z,12.40
2022-10-17T12:23:22.745Z,12.40
2022-10-17T12:24:22.737Z,9.80
2022-10-17T12:25:22.742Z,9.50
2022-10-17T12:26:22.680Z,10.50
2022-10-17T12:27:22.700Z,9.10
2022-10-17T12:28:22.724Z,11.60
2022-10-17T12:29:22.648Z,9.50
2022-10-17T12:30:22.709Z,10.60
2022-10-17T12:31:22.629Z,12.30
2022-10-17T12:32:22.610Z,13.00
2022-10-17T12:33:22.677Z,12.40
2022-10-17T12:34:25.420Z,9.70
2022-10-17T12:35:22.567Z,9.90
2022-10-17T12:36:22.813Z,10.30
2022-10-17T12:37:22.831Z,10.50
2022-10-17T12:38:22.532Z,9.70
2022-10-17T12:39:22.512Z,14.30
2022-10-17T12:40:22.533Z,12.10
2022-10-17T12:41:22.490Z,9.10
2022-10-17T12:42:22.482Z,10.50
2022-10-17T12:43:22.463Z,13.20
2022-10-17T12:44:22.443Z,9.80
2022-10-17T12:45:22.441Z,9.00
2022-10-17T12:46:22.469Z,9.50
2022-10-17T12:47:22.423Z,11.20
2022-10-17T12:48:22.457Z,10.20
2022-10-17T12:49:22.414Z,14.20
2022-10-17T12:50:22.370Z,10.30
2022-10-17T12:51:38.107Z,9.70
2022-10-17T12:52:23.382Z,12.40
2022-10-17T12:53:22.342Z,8.90
2022-10-17T12:54:22.324Z,13.60
2022-10-17T12:55:22.314Z,11.70
2022-10-17T12:56:22.345Z,11.60
2022-10-17T12:57:22.287Z,12.60
2022-10-17T12:58:22.359Z,13.90